sensor_id;sensor_type;location;lat;lon;timestamp;P1;P2;P0
76661;PMS5003;65579;45.534;6.212;2023-03-16T00:00:13;18;15;
76661;PMS5003;65579;45.534;6.212;2023-03-16T00:02:39;15;15;
76661;PMS5003;65579;45.534;6.212;2023-03-16T00:05:04;21;17;
76661;PMS5003;65579;45.534;6.212;2023-03-16T00:07:29;20;16;
76661;PMS5003;65579;45.534;6.212;2023-03-16T00:09:55;20;16;
76661;PMS5003;65579;45.534;6.212;2023-03-16T00:12:20;17;14;
76661;PMS5003;65579;45.534;6.212;2023-03-16T00:14:46;18;17;
76661;PMS5003;65579;45.534;6.212;2023-03-16T00:17:10;17;17;
76661;PMS5003;65579;45.534;6.212;2023-03-16T00:19:36;21;17;
76661;PMS5003;65579;45.534;6.212;2023-03-16T00:22:01;19;19;
76661;PMS5003;65579;45.534;6.212;2023-03-16T00:24:27;22;20;
76661;PMS5003;65579;45.534;6.212;2023-03-16T00:26:52;17;15;
76661;PMS5003;65579;45.534;6.212;2023-03-16T00:29:18;17;16;
76661;PMS5003;65579;45.534;6.212;2023-03-16T00:31:44;11;11;
76661;PMS5003;65579;45.534;6.212;2023-03-16T00:34:09;14;10;
76661;PMS5003;65579;45.534;6.212;2023-03-16T00:36:35;8;8;
76661;PMS5003;65579;45.534;6.212;2023-03-16T00:39:00;8;8;
76661;PMS5003;65579;45.534;6.212;2023-03-16T00:41:26;12;12;
76661;PMS5003;65579;45.534;6.212;2023-03-16T00:43:51;5;5;
76661;PMS5003;65579;45.534;6.212;2023-03-16T00:46:17;8;7;
76661;PMS5003;65579;45.534;6.212;2023-03-16T00:48:43;13;9;
76661;PMS5003;65579;45.534;6.212;2023-03-16T00:51:08;13;11;
76661;PMS5003;65579;45.534;6.212;2023-03-16T00:53:33;10;8;
76661;PMS5003;65579;45.534;6.212;2023-03-16T00:55:59;15;11;
76661;PMS5003;65579;45.534;6.212;2023-03-16T00:58:24;13;13;
76661;PMS5003;65579;45.534;6.212;2023-03-16T01:00:49;13;13;
76661;PMS5003;65579;45.534;6.212;2023-03-16T01:03:14;11;11;
76661;PMS5003;65579;45.534;6.212;2023-03-16T01:05:40;14;11;
76661;PMS5003;65579;45.534;6.212;2023-03-16T01:08:05;9;9;
76661;PMS5003;65579;45.534;6.212;2023-03-16T01:10:31;13;10;
76661;PMS5003;65579;45.534;6.212;2023-03-16T01:12:56;11;10;
76661;PMS5003;65579;45.534;6.212;2023-03-16T01:15:22;11;10;
76661;PMS5003;65579;45.534;6.212;2023-03-16T01:17:47;11;11;
76661;PMS5003;65579;45.534;6.212;2023-03-16T01:20:13;10;10;
76661;PMS5003;65579;45.534;6.212;2023-03-16T01:22:38;14;13;
76661;PMS5003;65579;45.534;6.212;2023-03-16T01:25:04;8;8;
76661;PMS5003;65579;45.534;6.212;2023-03-16T01:27:29;18;14;
76661;PMS5003;65579;45.534;6.212;2023-03-16T01:29:55;14;13;
76661;PMS5003;65579;45.534;6.212;2023-03-16T01:32:20;12;10;
76661;PMS5003;65579;45.534;6.212;2023-03-16T01:34:45;13;13;
76661;PMS5003;65579;45.534;6.212;2023-03-16T01:37:11;7;7;
76661;PMS5003;65579;45.534;6.212;2023-03-16T01:39:36;8;8;
76661;PMS5003;65579;45.534;6.212;2023-03-16T01:42:02;24;16;
76661;PMS5003;65579;45.534;6.212;2023-03-16T01:44:27;23;20;
76661;PMS5003;65579;45.534;6.212;2023-03-16T01:46:52;16;14;
76661;PMS5003;65579;45.534;6.212;2023-03-16T01:49:18;19;16;
76661;PMS5003;65579;45.534;6.212;2023-03-16T01:51:44;16;15;
76661;PMS5003;65579;45.534;6.212;2023-03-16T01:54:10;22;19;
76661;PMS5003;65579;45.534;6.212;2023-03-16T01:56:35;18;15;
76661;PMS5003;65579;45.534;6.212;2023-03-16T01:58:59;20;14;
76661;PMS5003;65579;45.534;6.212;2023-03-16T02:01:25;15;13;
76661;PMS5003;65579;45.534;6.212;2023-03-16T02:03:49;18;14;
76661;PMS5003;65579;45.534;6.212;2023-03-16T02:06:17;14;13;
76661;PMS5003;65579;45.534;6.212;2023-03-16T02:08:41;12;12;
76661;PMS5003;65579;45.534;6.212;2023-03-16T02:11:06;10;10;
76661;PMS5003;65579;45.534;6.212;2023-03-16T02:13:32;15;13;
76661;PMS5003;65579;45.534;6.212;2023-03-16T02:15:57;10;10;
76661;PMS5003;65579;45.534;6.212;2023-03-16T02:18:23;15;13;
76661;PMS5003;65579;45.534;6.212;2023-03-16T02:20:49;16;16;
76661;PMS5003;65579;45.534;6.212;2023-03-16T02:23:14;53;52;
76661;PMS5003;65579;45.534;6.212;2023-03-16T02:25:41;38;37;
76661;PMS5003;65579;45.534;6.212;2023-03-16T02:28:06;23;21;
76661;PMS5003;65579;45.534;6.212;2023-03-16T02:30:30;14;14;
76661;PMS5003;65579;45.534;6.212;2023-03-16T02:32:55;15;14;
76661;PMS5003;65579;45.534;6.212;2023-03-16T02:35:20;10;9;
76661;PMS5003;65579;45.534;6.212;2023-03-16T02:37:46;18;18;
76661;PMS5003;65579;45.534;6.212;2023-03-16T02:40:15;19;15;
76661;PMS5003;65579;45.534;6.212;2023-03-16T02:42:37;18;17;
76661;PMS5003;65579;45.534;6.212;2023-03-16T02:45:03;14;14;
76661;PMS5003;65579;45.534;6.212;2023-03-16T02:47:31;14;12;
76661;PMS5003;65579;45.534;6.212;2023-03-16T02:49:54;15;12;
76661;PMS5003;65579;45.534;6.212;2023-03-16T02:52:19;22;22;
76661;PMS5003;65579;45.534;6.212;2023-03-16T02:54:45;15;15;
76661;PMS5003;65579;45.534;6.212;2023-03-16T02:57:10;13;12;
76661;PMS5003;65579;45.534;6.212;2023-03-16T02:59:36;11;11;
76661;PMS5003;65579;45.534;6.212;2023-03-16T03:02:02;17;12;
76661;PMS5003;65579;45.534;6.212;2023-03-16T03:04:27;12;9;
76661;PMS5003;65579;45.534;6.212;2023-03-16T03:06:52;15;13;
76661;PMS5003;65579;45.534;6.212;2023-03-16T03:09:18;14;12;
76661;PMS5003;65579;45.534;6.212;2023-03-16T03:11:43;12;10;
76661;PMS5003;65579;45.534;6.212;2023-03-16T03:14:09;11;11;
76661;PMS5003;65579;45.534;6.212;2023-03-16T03:16:34;12;12;
76661;PMS5003;65579;45.534;6.212;2023-03-16T03:18:59;13;11;
76661;PMS5003;65579;45.534;6.212;2023-03-16T03:21:25;15;11;
76661;PMS5003;65579;45.534;6.212;2023-03-16T03:23:50;15;13;
76661;PMS5003;65579;45.534;6.212;2023-03-16T03:26:16;11;11;
76661;PMS5003;65579;45.534;6.212;2023-03-16T03:28:42;9;9;
76661;PMS5003;65579;45.534;6.212;2023-03-16T03:31:07;8;8;
76661;PMS5003;65579;45.534;6.212;2023-03-16T03:33:32;9;9;
76661;PMS5003;65579;45.534;6.212;2023-03-16T03:35:58;14;10;
76661;PMS5003;65579;45.534;6.212;2023-03-16T03:38:24;12;11;
76661;PMS5003;65579;45.534;6.212;2023-03-16T03:40:49;8;8;
76661;PMS5003;65579;45.534;6.212;2023-03-16T03:43:15;11;9;
76661;PMS5003;65579;45.534;6.212;2023-03-16T03:45:40;9;9;
76661;PMS5003;65579;45.534;6.212;2023-03-16T03:48:06;9;8;
76661;PMS5003;65579;45.534;6.212;2023-03-16T03:50:32;9;9;
76661;PMS5003;65579;45.534;6.212;2023-03-16T03:52:57;9;9;
76661;PMS5003;65579;45.534;6.212;2023-03-16T03:55:23;11;9;
76661;PMS5003;65579;45.534;6.212;2023-03-16T03:57:48;8;8;
76661;PMS5003;65579;45.534;6.212;2023-03-16T04:00:14;15;12;
76661;PMS5003;65579;45.534;6.212;2023-03-16T04:02:39;10;8;
76661;PMS5003;65579;45.534;6.212;2023-03-16T04:05:05;12;9;
76661;PMS5003;65579;45.534;6.212;2023-03-16T04:07:31;16;13;
76661;PMS5003;65579;45.534;6.212;2023-03-16T04:09:56;15;12;
76661;PMS5003;65579;45.534;6.212;2023-03-16T04:12:21;17;16;
76661;PMS5003;65579;45.534;6.212;2023-03-16T04:14:47;17;12;
76661;PMS5003;65579;45.534;6.212;2023-03-16T04:17:12;17;17;
76661;PMS5003;65579;45.534;6.212;2023-03-16T04:19:38;14;13;
76661;PMS5003;65579;45.534;6.212;2023-03-16T04:22:03;14;13;
76661;PMS5003;65579;45.534;6.212;2023-03-16T04:24:29;17;17;
76661;PMS5003;65579;45.534;6.212;2023-03-16T04:26:54;12;9;
76661;PMS5003;65579;45.534;6.212;2023-03-16T04:29:20;10;10;
76661;PMS5003;65579;45.534;6.212;2023-03-16T04:31:45;15;14;
76661;PMS5003;65579;45.534;6.212;2023-03-16T04:34:11;16;14;
76661;PMS5003;65579;45.534;6.212;2023-03-16T04:36:37;16;15;
76661;PMS5003;65579;45.534;6.212;2023-03-16T04:39:02;13;13;
76661;PMS5003;65579;45.534;6.212;2023-03-16T04:41:28;14;12;
76661;PMS5003;65579;45.534;6.212;2023-03-16T04:43:53;16;11;
76661;PMS5003;65579;45.534;6.212;2023-03-16T04:46:19;13;9;
76661;PMS5003;65579;45.534;6.212;2023-03-16T04:48:44;13;12;
76661;PMS5003;65579;45.534;6.212;2023-03-16T04:51:09;21;18;
76661;PMS5003;65579;45.534;6.212;2023-03-16T04:53:34;16;13;
76661;PMS5003;65579;45.534;6.212;2023-03-16T04:56:00;19;14;
76661;PMS5003;65579;45.534;6.212;2023-03-16T04:58:26;14;14;
76661;PMS5003;65579;45.534;6.212;2023-03-16T05:00:51;14;13;
76661;PMS5003;65579;45.534;6.212;2023-03-16T05:03:17;12;12;
76661;PMS5003;65579;45.534;6.212;2023-03-16T05:05:42;21;16;
76661;PMS5003;65579;45.534;6.212;2023-03-16T05:08:08;14;14;
76661;PMS5003;65579;45.534;6.212;2023-03-16T05:10:34;16;16;
76661;PMS5003;65579;45.534;6.212;2023-03-16T05:12:59;15;11;
76661;PMS5003;65579;45.534;6.212;2023-03-16T05:15:25;12;11;
76661;PMS5003;65579;45.534;6.212;2023-03-16T05:17:50;11;11;
76661;PMS5003;65579;45.534;6.212;2023-03-16T05:20:16;7;7;
76661;PMS5003;65579;45.534;6.212;2023-03-16T05:22:42;18;13;
76661;PMS5003;65579;45.534;6.212;2023-03-16T05:25:07;13;12;
76661;PMS5003;65579;45.534;6.212;2023-03-16T05:27:32;10;10;
76661;PMS5003;65579;45.534;6.212;2023-03-16T05:29:58;19;16;
76661;PMS5003;65579;45.534;6.212;2023-03-16T05:32:23;14;14;
76661;PMS5003;65579;45.534;6.212;2023-03-16T05:34:49;16;12;
76661;PMS5003;65579;45.534;6.212;2023-03-16T05:37:14;12;12;
76661;PMS5003;65579;45.534;6.212;2023-03-16T05:39:40;9;9;
76661;PMS5003;65579;45.534;6.212;2023-03-16T05:42:05;17;15;
76661;PMS5003;65579;45.534;6.212;2023-03-16T05:44:31;20;16;
76661;PMS5003;65579;45.534;6.212;2023-03-16T05:46:56;16;11;
76661;PMS5003;65579;45.534;6.212;2023-03-16T05:49:21;14;12;
76661;PMS5003;65579;45.534;6.212;2023-03-16T05:51:47;14;12;
76661;PMS5003;65579;45.534;6.212;2023-03-16T05:54:13;11;11;
76661;PMS5003;65579;45.534;6.212;2023-03-16T05:56:38;23;23;
76661;PMS5003;65579;45.534;6.212;2023-03-16T05:59:03;14;14;
76661;PMS5003;65579;45.534;6.212;2023-03-16T06:01:29;12;9;
76661;PMS5003;65579;45.534;6.212;2023-03-16T06:03:54;13;13;
76661;PMS5003;65579;45.534;6.212;2023-03-16T06:06:20;8;8;
76661;PMS5003;65579;45.534;6.212;2023-03-16T06:08:45;9;9;
76661;PMS5003;65579;45.534;6.212;2023-03-16T06:11:11;11;9;
76661;PMS5003;65579;45.534;6.212;2023-03-16T06:13:36;24;17;
76661;PMS5003;65579;45.534;6.212;2023-03-16T06:16:01;10;9;
76661;PMS5003;65579;45.534;6.212;2023-03-16T06:20:52;11;11;
76661;PMS5003;65579;45.534;6.212;2023-03-16T06:23:18;9;9;
76661;PMS5003;65579;45.534;6.212;2023-03-16T06:25:45;8;8;
76661;PMS5003;65579;45.534;6.212;2023-03-16T06:28:09;10;10;
76661;PMS5003;65579;45.534;6.212;2023-03-16T06:30:35;11;11;
76661;PMS5003;65579;45.534;6.212;2023-03-16T06:33:00;14;12;
76661;PMS5003;65579;45.534;6.212;2023-03-16T06:35:26;8;8;
76661;PMS5003;65579;45.534;6.212;2023-03-16T06:37:51;14;14;
76661;PMS5003;65579;45.534;6.212;2023-03-16T06:40:17;12;10;
76661;PMS5003;65579;45.534;6.212;2023-03-16T06:42:42;17;13;
76661;PMS5003;65579;45.534;6.212;2023-03-16T06:45:09;11;11;
76661;PMS5003;65579;45.534;6.212;2023-03-16T06:47:34;14;12;
76661;PMS5003;65579;45.534;6.212;2023-03-16T06:49:59;14;13;
76661;PMS5003;65579;45.534;6.212;2023-03-16T06:52:25;12;12;
76661;PMS5003;65579;45.534;6.212;2023-03-16T06:54:50;15;12;
76661;PMS5003;65579;45.534;6.212;2023-03-16T06:57:16;13;12;
76661;PMS5003;65579;45.534;6.212;2023-03-16T06:59:41;9;9;
76661;PMS5003;65579;45.534;6.212;2023-03-16T07:02:08;13;12;
76661;PMS5003;65579;45.534;6.212;2023-03-16T07:04:32;19;19;
76661;PMS5003;65579;45.534;6.212;2023-03-16T07:06:57;12;10;
76661;PMS5003;65579;45.534;6.212;2023-03-16T07:09:23;22;22;
76661;PMS5003;65579;45.534;6.212;2023-03-16T07:11:49;15;15;
76661;PMS5003;65579;45.534;6.212;2023-03-16T07:14:14;15;14;
76661;PMS5003;65579;45.534;6.212;2023-03-16T07:16:40;19;16;
76661;PMS5003;65579;45.534;6.212;2023-03-16T07:19:05;12;10;
76661;PMS5003;65579;45.534;6.212;2023-03-16T07:21:31;13;13;
76661;PMS5003;65579;45.534;6.212;2023-03-16T07:26:22;14;13;
76661;PMS5003;65579;45.534;6.212;2023-03-16T07:28:49;13;13;
76661;PMS5003;65579;45.534;6.212;2023-03-16T07:31:13;19;15;
76661;PMS5003;65579;45.534;6.212;2023-03-16T07:33:38;26;21;
76661;PMS5003;65579;45.534;6.212;2023-03-16T07:36:04;19;18;
76661;PMS5003;65579;45.534;6.212;2023-03-16T07:38:30;13;13;
76661;PMS5003;65579;45.534;6.212;2023-03-16T07:40:55;26;24;
76661;PMS5003;65579;45.534;6.212;2023-03-16T07:43:20;23;22;
76661;PMS5003;65579;45.534;6.212;2023-03-16T07:45:46;21;18;
76661;PMS5003;65579;45.534;6.212;2023-03-16T07:48:11;20;17;
76661;PMS5003;65579;45.534;6.212;2023-03-16T07:50:36;36;32;
76661;PMS5003;65579;45.534;6.212;2023-03-16T07:53:01;36;30;
76661;PMS5003;65579;45.534;6.212;2023-03-16T07:55:27;26;21;
76661;PMS5003;65579;45.534;6.212;2023-03-16T07:57:52;26;24;
76661;PMS5003;65579;45.534;6.212;2023-03-16T08:00:18;29;27;
76661;PMS5003;65579;45.534;6.212;2023-03-16T08:02:42;10;10;
76661;PMS5003;65579;45.534;6.212;2023-03-16T08:05:08;8;8;
76661;PMS5003;65579;45.534;6.212;2023-03-16T08:07:34;8;8;
76661;PMS5003;65579;45.534;6.212;2023-03-16T08:09:59;7;7;
76661;PMS5003;65579;45.534;6.212;2023-03-16T08:12:25;5;5;
76661;PMS5003;65579;45.534;6.212;2023-03-16T08:14:50;5;5;
76661;PMS5003;65579;45.534;6.212;2023-03-16T08:17:15;4;4;
76661;PMS5003;65579;45.534;6.212;2023-03-16T08:19:41;17;17;
76661;PMS5003;65579;45.534;6.212;2023-03-16T08:22:07;15;13;
76661;PMS5003;65579;45.534;6.212;2023-03-16T08:24:32;15;13;
76661;PMS5003;65579;45.534;6.212;2023-03-16T08:26:58;10;10;
76661;PMS5003;65579;45.534;6.212;2023-03-16T08:29:23;13;10;
76661;PMS5003;65579;45.534;6.212;2023-03-16T08:31:49;5;5;
76661;PMS5003;65579;45.534;6.212;2023-03-16T08:34:14;8;8;
76661;PMS5003;65579;45.534;6.212;2023-03-16T08:36:40;5;4;
76661;PMS5003;65579;45.534;6.212;2023-03-16T08:39:05;4;4;
76661;PMS5003;65579;45.534;6.212;2023-03-16T08:41:31;5;4;
76661;PMS5003;65579;45.534;6.212;2023-03-16T08:43:56;3;3;
76661;PMS5003;65579;45.534;6.212;2023-03-16T08:46:22;4;4;
76661;PMS5003;65579;45.534;6.212;2023-03-16T08:48:47;2;2;
76661;PMS5003;65579;45.534;6.212;2023-03-16T08:51:13;2;2;
76661;PMS5003;65579;45.534;6.212;2023-03-16T08:53:38;4;3;
76661;PMS5003;65579;45.534;6.212;2023-03-16T08:56:04;2;2;
76661;PMS5003;65579;45.534;6.212;2023-03-16T08:58:29;4;3;
76661;PMS5003;65579;45.534;6.212;2023-03-16T09:00:55;3;3;
76661;PMS5003;65579;45.534;6.212;2023-03-16T09:03:20;3;3;
76661;PMS5003;65579;45.534;6.212;2023-03-16T09:05:47;4;4;
76661;PMS5003;65579;45.534;6.212;2023-03-16T09:08:11;3;3;
76661;PMS5003;65579;45.534;6.212;2023-03-16T09:13:03;3;3;
76661;PMS5003;65579;45.534;6.212;2023-03-16T09:20:19;3;3;
76661;PMS5003;65579;45.534;6.212;2023-03-16T09:22:44;4;3;
76661;PMS5003;65579;45.534;6.212;2023-03-16T09:25:09;3;3;
76661;PMS5003;65579;45.534;6.212;2023-03-16T09:27:36;2;2;
76661;PMS5003;65579;45.534;6.212;2023-03-16T09:30:00;2;2;
76661;PMS5003;65579;45.534;6.212;2023-03-16T09:32:25;4;4;
76661;PMS5003;65579;45.534;6.212;2023-03-16T09:34:52;3;2;
76661;PMS5003;65579;45.534;6.212;2023-03-16T09:37:16;4;4;
76661;PMS5003;65579;45.534;6.212;2023-03-16T09:39:41;3;3;
76661;PMS5003;65579;45.534;6.212;2023-03-16T09:42:11;3;3;
76661;PMS5003;65579;45.534;6.212;2023-03-16T09:44:34;3;3;
76661;PMS5003;65579;45.534;6.212;2023-03-16T09:46:58;5;5;
76661;PMS5003;65579;45.534;6.212;2023-03-16T09:49:23;4;4;
76661;PMS5003;65579;45.534;6.212;2023-03-16T09:51:50;3;3;
76661;PMS5003;65579;45.534;6.212;2023-03-16T09:54:18;3;2;
76661;PMS5003;65579;45.534;6.212;2023-03-16T09:56:40;3;3;
76661;PMS5003;65579;45.534;6.212;2023-03-16T09:59:08;2;2;
76661;PMS5003;65579;45.534;6.212;2023-03-16T10:01:33;2;2;
76661;PMS5003;65579;45.534;6.212;2023-03-16T10:03:58;4;2;
76661;PMS5003;65579;45.534;6.212;2023-03-16T10:06:21;2;2;
76661;PMS5003;65579;45.534;6.212;2023-03-16T10:08:49;3;3;
76661;PMS5003;65579;45.534;6.212;2023-03-16T10:11:17;4;3;
76661;PMS5003;65579;45.534;6.212;2023-03-16T10:13:39;4;4;
76661;PMS5003;65579;45.534;6.212;2023-03-16T10:16:05;3;3;
76661;PMS5003;65579;45.534;6.212;2023-03-16T10:18:30;2;2;
76661;PMS5003;65579;45.534;6.212;2023-03-16T10:20:53;4;4;
76661;PMS5003;65579;45.534;6.212;2023-03-16T10:23:20;4;4;
76661;PMS5003;65579;45.534;6.212;2023-03-16T10:25:45;4;4;
76661;PMS5003;65579;45.534;6.212;2023-03-16T10:28:11;5;5;
76661;PMS5003;65579;45.534;6.212;2023-03-16T10:30:35;4;4;
76661;PMS5003;65579;45.534;6.212;2023-03-16T10:33:01;3;3;
76661;PMS5003;65579;45.534;6.212;2023-03-16T10:35:29;4;3;
76661;PMS5003;65579;45.534;6.212;2023-03-16T10:37:52;4;4;
76661;PMS5003;65579;45.534;6.212;2023-03-16T10:40:16;3;3;
76661;PMS5003;65579;45.534;6.212;2023-03-16T10:52:26;4;4;
76661;PMS5003;65579;45.534;6.212;2023-03-16T10:54:50;3;3;
76661;PMS5003;65579;45.534;6.212;2023-03-16T10:57:19;3;3;
76661;PMS5003;65579;45.534;6.212;2023-03-16T10:59:39;4;4;
76661;PMS5003;65579;45.534;6.212;2023-03-16T11:02:14;4;4;
76661;PMS5003;65579;45.534;6.212;2023-03-16T11:06:56;3;2;
76661;PMS5003;65579;45.534;6.212;2023-03-16T11:09:23;4;2;
76661;PMS5003;65579;45.534;6.212;2023-03-16T11:11:45;3;3;
76661;PMS5003;65579;45.534;6.212;2023-03-16T11:21:33;3;3;
76661;PMS5003;65579;45.534;6.212;2023-03-16T11:23:54;2;2;
76661;PMS5003;65579;45.534;6.212;2023-03-16T11:26:20;1;1;
76661;PMS5003;65579;45.534;6.212;2023-03-16T11:28:45;2;2;
76661;PMS5003;65579;45.534;6.212;2023-03-16T11:31:12;4;4;
76661;PMS5003;65579;45.534;6.212;2023-03-16T11:33:34;3;3;
76661;PMS5003;65579;45.534;6.212;2023-03-16T11:35:59;1;1;
76661;PMS5003;65579;45.534;6.212;2023-03-16T11:38:28;3;3;
76661;PMS5003;65579;45.534;6.212;2023-03-16T11:40:53;3;3;
76661;PMS5003;65579;45.534;6.212;2023-03-16T11:45:46;2;2;
76661;PMS5003;65579;45.534;6.212;2023-03-16T11:48:10;3;3;
76661;PMS5003;65579;45.534;6.212;2023-03-16T11:50:35;2;2;
76661;PMS5003;65579;45.534;6.212;2023-03-16T11:52:58;3;3;
76661;PMS5003;65579;45.534;6.212;2023-03-16T11:55:27;2;2;
76661;PMS5003;65579;45.534;6.212;2023-03-16T11:57:50;2;2;
76661;PMS5003;65579;45.534;6.212;2023-03-16T12:00:18;2;2;
76661;PMS5003;65579;45.534;6.212;2023-03-16T12:02:40;4;3;
76661;PMS5003;65579;45.534;6.212;2023-03-16T12:07:33;2;2;
76661;PMS5003;65579;45.534;6.212;2023-03-16T12:09:57;3;3;
76661;PMS5003;65579;45.534;6.212;2023-03-16T12:12:23;2;2;
76661;PMS5003;65579;45.534;6.212;2023-03-16T12:17:12;2;2;
76661;PMS5003;65579;45.534;6.212;2023-03-16T12:19:38;2;2;
76661;PMS5003;65579;45.534;6.212;2023-03-16T12:22:01;2;1;
76661;PMS5003;65579;45.534;6.212;2023-03-16T12:24:27;0;0;
76661;PMS5003;65579;45.534;6.212;2023-03-16T12:26:51;1;1;
76661;PMS5003;65579;45.534;6.212;2023-03-16T12:29:18;2;2;
76661;PMS5003;65579;45.534;6.212;2023-03-16T12:31:41;2;2;
76661;PMS5003;65579;45.534;6.212;2023-03-16T12:34:07;1;1;
76661;PMS5003;65579;45.534;6.212;2023-03-16T12:36:34;2;2;
76661;PMS5003;65579;45.534;6.212;2023-03-16T12:38:56;1;1;
76661;PMS5003;65579;45.534;6.212;2023-03-16T12:41:24;1;1;
76661;PMS5003;65579;45.534;6.212;2023-03-16T12:43:49;1;1;
76661;PMS5003;65579;45.534;6.212;2023-03-16T12:46:11;1;1;
76661;PMS5003;65579;45.534;6.212;2023-03-16T12:48:37;3;2;
76661;PMS5003;65579;45.534;6.212;2023-03-16T12:51:02;3;1;
76661;PMS5003;65579;45.534;6.212;2023-03-16T12:53:28;1;1;
76661;PMS5003;65579;45.534;6.212;2023-03-16T12:55:52;1;1;
76661;PMS5003;65579;45.534;6.212;2023-03-16T12:58:17;3;2;
76661;PMS5003;65579;45.534;6.212;2023-03-16T13:00:42;1;1;
76661;PMS5003;65579;45.534;6.212;2023-03-16T13:03:10;2;2;
76661;PMS5003;65579;45.534;6.212;2023-03-16T13:10:24;2;2;
76661;PMS5003;65579;45.534;6.212;2023-03-16T13:12:49;1;1;
76661;PMS5003;65579;45.534;6.212;2023-03-16T13:17:40;2;2;
76661;PMS5003;65579;45.534;6.212;2023-03-16T13:22:30;2;2;
76661;PMS5003;65579;45.534;6.212;2023-03-16T13:24:55;1;1;
76661;PMS5003;65579;45.534;6.212;2023-03-16T13:27:21;2;2;
76661;PMS5003;65579;45.534;6.212;2023-03-16T13:32:14;2;2;
76661;PMS5003;65579;45.534;6.212;2023-03-16T13:34:36;2;2;
76661;PMS5003;65579;45.534;6.212;2023-03-16T13:37:00;1;1;
76661;PMS5003;65579;45.534;6.212;2023-03-16T13:39:27;1;1;
76661;PMS5003;65579;45.534;6.212;2023-03-16T13:41:55;2;2;
76661;PMS5003;65579;45.534;6.212;2023-03-16T13:44:16;2;2;
76661;PMS5003;65579;45.534;6.212;2023-03-16T13:49:10;1;1;
76661;PMS5003;65579;45.534;6.212;2023-03-16T13:51:33;1;1;
76661;PMS5003;65579;45.534;6.212;2023-03-16T13:56:22;1;1;
76661;PMS5003;65579;45.534;6.212;2023-03-16T13:58:47;1;1;
76661;PMS5003;65579;45.534;6.212;2023-03-16T14:01:14;1;1;
76661;PMS5003;65579;45.534;6.212;2023-03-16T14:03:38;1;1;
76661;PMS5003;65579;45.534;6.212;2023-03-16T14:06:03;2;2;
76661;PMS5003;65579;45.534;6.212;2023-03-16T14:08:28;2;2;
76661;PMS5003;65579;45.534;6.212;2023-03-16T14:10:53;2;2;
76661;PMS5003;65579;45.534;6.212;2023-03-16T14:13:22;1;1;
76661;PMS5003;65579;45.534;6.212;2023-03-16T14:15:43;4;4;
76661;PMS5003;65579;45.534;6.212;2023-03-16T14:18:11;1;1;
76661;PMS5003;65579;45.534;6.212;2023-03-16T14:20:33;1;1;
76661;PMS5003;65579;45.534;6.212;2023-03-16T14:23:00;2;1;
76661;PMS5003;65579;45.534;6.212;2023-03-16T14:25:24;1;1;
76661;PMS5003;65579;45.534;6.212;2023-03-16T14:30:16;1;1;
76661;PMS5003;65579;45.534;6.212;2023-03-16T14:32:40;2;2;
76661;PMS5003;65579;45.534;6.212;2023-03-16T14:35:10;1;1;
76661;PMS5003;65579;45.534;6.212;2023-03-16T14:39:57;2;2;
76661;PMS5003;65579;45.534;6.212;2023-03-16T14:42:22;2;2;
76661;PMS5003;65579;45.534;6.212;2023-03-16T14:44:45;3;1;
76661;PMS5003;65579;45.534;6.212;2023-03-16T14:47:13;2;2;
76661;PMS5003;65579;45.534;6.212;2023-03-16T14:49:36;2;2;
76661;PMS5003;65579;45.534;6.212;2023-03-16T14:52:03;2;2;
76661;PMS5003;65579;45.534;6.212;2023-03-16T14:56:53;1;1;
76661;PMS5003;65579;45.534;6.212;2023-03-16T15:01:42;1;0;
76661;PMS5003;65579;45.534;6.212;2023-03-16T15:04:09;1;1;
76661;PMS5003;65579;45.534;6.212;2023-03-16T15:06:32;2;2;
76661;PMS5003;65579;45.534;6.212;2023-03-16T15:08:58;1;1;
76661;PMS5003;65579;45.534;6.212;2023-03-16T15:11:22;1;1;
76661;PMS5003;65579;45.534;6.212;2023-03-16T15:13:47;3;3;
76661;PMS5003;65579;45.534;6.212;2023-03-16T15:16:13;2;2;
76661;PMS5003;65579;45.534;6.212;2023-03-16T15:18:38;0;0;
76661;PMS5003;65579;45.534;6.212;2023-03-16T15:21:02;2;2;
76661;PMS5003;65579;45.534;6.212;2023-03-16T15:23:28;4;3;
76661;PMS5003;65579;45.534;6.212;2023-03-16T15:25:52;1;1;
76661;PMS5003;65579;45.534;6.212;2023-03-16T15:28:19;3;3;
76661;PMS5003;65579;45.534;6.212;2023-03-16T15:30:45;1;1;
76661;PMS5003;65579;45.534;6.212;2023-03-16T15:33:10;1;1;
76661;PMS5003;65579;45.534;6.212;2023-03-16T15:35:35;1;1;
76661;PMS5003;65579;45.534;6.212;2023-03-16T15:37:59;0;0;
76661;PMS5003;65579;45.534;6.212;2023-03-16T15:40:24;1;1;
76661;PMS5003;65579;45.534;6.212;2023-03-16T15:42:49;1;1;
76661;PMS5003;65579;45.534;6.212;2023-03-16T15:45:15;0;0;
76661;PMS5003;65579;45.534;6.212;2023-03-16T15:47:39;1;1;
76661;PMS5003;65579;45.534;6.212;2023-03-16T15:50:05;0;0;
76661;PMS5003;65579;45.534;6.212;2023-03-16T15:52:31;1;1;
76661;PMS5003;65579;45.534;6.212;2023-03-16T15:54:55;2;2;
76661;PMS5003;65579;45.534;6.212;2023-03-16T15:57:21;1;1;
76661;PMS5003;65579;45.534;6.212;2023-03-16T15:59:45;3;2;
76661;PMS5003;65579;45.534;6.212;2023-03-16T16:02:20;1;1;
76661;PMS5003;65579;45.534;6.212;2023-03-16T16:04:35;1;1;
76661;PMS5003;65579;45.534;6.212;2023-03-16T16:07:00;1;1;
76661;PMS5003;65579;45.534;6.212;2023-03-16T16:09:25;1;1;
76661;PMS5003;65579;45.534;6.212;2023-03-16T16:11:50;1;1;
76661;PMS5003;65579;45.534;6.212;2023-03-16T16:14:16;1;1;
76661;PMS5003;65579;45.534;6.212;2023-03-16T16:16:41;1;1;
76661;PMS5003;65579;45.534;6.212;2023-03-16T16:19:07;2;2;
76661;PMS5003;65579;45.534;6.212;2023-03-16T16:23:57;2;2;
76661;PMS5003;65579;45.534;6.212;2023-03-16T16:26:24;0;0;
76661;PMS5003;65579;45.534;6.212;2023-03-16T16:28:46;2;2;
76661;PMS5003;65579;45.534;6.212;2023-03-16T16:31:12;2;2;
76661;PMS5003;65579;45.534;6.212;2023-03-16T16:33:36;2;2;
76661;PMS5003;65579;45.534;6.212;2023-03-16T16:36:02;0;0;
76661;PMS5003;65579;45.534;6.212;2023-03-16T16:38:31;1;1;
76661;PMS5003;65579;45.534;6.212;2023-03-16T16:40:52;1;1;
76661;PMS5003;65579;45.534;6.212;2023-03-16T16:43:19;0;0;
76661;PMS5003;65579;45.534;6.212;2023-03-16T16:45:43;2;1;
76661;PMS5003;65579;45.534;6.212;2023-03-16T16:48:08;2;1;
76661;PMS5003;65579;45.534;6.212;2023-03-16T16:50:32;1;1;
76661;PMS5003;65579;45.534;6.212;2023-03-16T16:52:58;5;5;
76661;PMS5003;65579;45.534;6.212;2023-03-16T16:55:23;1;1;
76661;PMS5003;65579;45.534;6.212;2023-03-16T16:57:50;1;1;
76661;PMS5003;65579;45.534;6.212;2023-03-16T17:00:16;2;2;
76661;PMS5003;65579;45.534;6.212;2023-03-16T17:02:41;2;2;
76661;PMS5003;65579;45.534;6.212;2023-03-16T17:05:04;1;1;
76661;PMS5003;65579;45.534;6.212;2023-03-16T17:07:29;1;1;
76661;PMS5003;65579;45.534;6.212;2023-03-16T17:09:54;1;1;
76661;PMS5003;65579;45.534;6.212;2023-03-16T17:14:44;2;1;
76661;PMS5003;65579;45.534;6.212;2023-03-16T17:17:11;1;1;
76661;PMS5003;65579;45.534;6.212;2023-03-16T17:22:01;1;1;
76661;PMS5003;65579;45.534;6.212;2023-03-16T17:24:25;3;3;
76661;PMS5003;65579;45.534;6.212;2023-03-16T17:26:52;0;0;
76661;PMS5003;65579;45.534;6.212;2023-03-16T17:29:16;2;2;
76661;PMS5003;65579;45.534;6.212;2023-03-16T17:31:40;1;1;
76661;PMS5003;65579;45.534;6.212;2023-03-16T17:34:12;1;1;